Time;durP1;ratioP1;P1;durP2;ratioP2;P2;SDS_P1;SDS_P2;PMS_P1;PMS_P2;Temp;Humidity;BMP_temperature;BMP_pressure;BME280_temperature;BME280_humidity;BME280_pressure;Samples;Min_cycle;Max_cycle;Signal;HPM_P1;HPM_P2
2021/01/04 00:00:38;;;;;;;16.10;7.57;;;3.40;84.50;;;;;;4955036;28;20019;-89
2021/01/04 00:03:41;;;;;;;16.42;8.55;;;3.40;84.50;;;;;;4953917;28;20432;-89
2021/01/04 00:06:16;;;;;;;19.88;8.73;;;3.40;84.70;;;;;;4955645;28;20077;-88
2021/01/04 00:09:00;;;;;;;18.10;8.05;;;3.40;84.40;;;;;;4954046;28;20015;-89
2021/01/04 00:11:53;;;;;;;18.88;8.07;;;3.40;84.50;;;;;;4956172;28;20034;-90
2021/01/04 00:14:42;;;;;;;17.20;8.55;;;3.30;84.30;;;;;;4953603;28;20019;-90
2021/01/04 00:17:28;;;;;;;17.27;7.47;;;3.30;84.40;;;;;;4956312;28;20476;-90
2021/01/04 00:20:33;;;;;;;18.77;8.05;;;3.30;84.30;;;;;;4956182;28;20038;-90
2021/01/04 00:23:23;;;;;;;14.75;7.20;;;3.30;84.70;;;;;;4954516;28;20038;-90
2021/01/04 00:26:10;;;;;;;15.07;7.35;;;3.30;84.60;;;;;;4954335;28;20037;-89
2021/01/04 00:28:38;;;;;;;17.17;7.75;;;3.30;84.30;;;;;;4953966;28;20029;-89
2021/01/04 00:31:13;;;;;;;17.70;7.57;;;3.30;84.60;;;;;;4939940;28;20137;-89
2021/01/04 00:33:44;;;;;;;21.38;8.43;;;3.30;84.60;;;;;;4973374;28;20376;-89
2021/01/04 00:36:37;;;;;;;18.58;8.02;;;3.30;84.70;;;;;;4955933;28;20059;-89
2021/01/04 00:39:49;;;;;;;16.38;7.60;;;3.30;84.80;;;;;;4957498;28;20479;-88
2021/01/04 00:42:34;;;;;;;16.42;7.00;;;3.40;84.80;;;;;;4898544;28;20042;-90
2021/01/04 00:45:11;;;;;;;18.25;8.25;;;3.30;84.40;;;;;;4956501;28;20034;-89
2021/01/04 00:47:55;;;;;;;14.18;7.85;;;3.30;84.60;;;;;;4954679;28;20332;-89
2021/01/04 00:51:03;;;;;;;16.83;7.45;;;3.40;84.80;;;;;;4953636;28;20037;-89
2021/01/04 00:53:45;;;;;;;17.00;6.85;;;3.40;84.70;;;;;;4973129;28;20471;-89
2021/01/04 00:56:33;;;;;;;17.80;7.07;;;3.40;84.60;;;;;;4954689;28;20035;-89
2021/01/04 00:59:06;;;;;;;19.55;7.90;;;3.40;84.70;;;;;;4971733;28;20491;-89
2021/01/04 01:01:50;;;;;;;14.68;7.22;;;3.40;84.80;;;;;;4956069;28;20022;-89
2021/01/04 01:04:28;;;;;;;18.27;7.32;;;3.40;84.80;;;;;;4953749;28;20035;-89
2021/01/04 01:07:09;;;;;;;20.48;7.40;;;3.40;84.60;;;;;;4955616;28;20023;-90
2021/01/04 01:09:45;;;;;;;19.75;8.20;;;3.40;84.60;;;;;;4959282;28;20031;-89
2021/01/04 01:12:27;;;;;;;17.30;8.02;;;3.40;84.60;;;;;;4974248;28;20027;-89
2021/01/04 01:15:13;;;;;;;14.55;6.53;;;3.40;84.40;;;;;;4976175;28;20030;-89
2021/01/04 01:18:07;;;;;;;18.42;7.15;;;3.40;84.50;;;;;;4959279;28;20472;-89
2021/01/04 01:20:39;;;;;;;19.45;7.93;;;3.30;84.50;;;;;;4958684;28;20431;-89
2021/01/04 01:23:06;;;;;;;19.33;7.82;;;3.30;84.50;;;;;;4958783;28;20039;-90
2021/01/04 01:25:42;;;;;;;15.55;7.53;;;3.30;84.60;;;;;;4958880;28;20019;-88
2021/01/04 01:28:39;;;;;;;17.52;7.18;;;3.30;84.40;;;;;;4958554;28;20037;-91
2021/01/04 01:32:01;;;;;;;16.88;7.70;;;3.30;84.40;;;;;;4956203;28;20051;-90
2021/01/04 01:34:50;;;;;;;17.55;7.30;;;3.30;84.60;;;;;;4897912;29;20029;-91
2021/01/04 01:37:51;;;;;;;16.20;7.43;;;3.30;84.70;;;;;;4882535;29;20060;-91
2021/01/04 01:40:41;;;;;;;18.80;7.25;;;3.30;84.50;;;;;;4973277;28;20387;-90
2021/01/04 01:43:25;;;;;;;18.17;7.72;;;3.30;84.70;;;;;;4958538;28;20090;-90
2021/01/04 01:46:04;;;;;;;17.55;8.13;;;3.30;84.50;;;;;;4955895;28;20106;-89
2021/01/04 01:48:42;;;;;;;16.75;7.20;;;3.30;84.60;;;;;;4958606;28;20082;-89
2021/01/04 01:51:34;;;;;;;19.95;7.72;;;3.30;84.80;;;;;;4956930;28;20495;-89
2021/01/04 01:54:34;;;;;;;17.98;7.63;;;3.40;84.80;;;;;;4957077;28;21163;-90
2021/01/04 01:57:15;;;;;;;19.15;8.00;;;3.40;84.90;;;;;;4958085;28;20370;-89
2021/01/04 01:59:49;;;;;;;21.95;8.43;;;3.30;84.30;;;;;;4956740;28;20387;-88
2021/01/04 02:02:44;;;;;;;19.20;8.20;;;3.30;84.60;;;;;;4975710;28;20393;-88
2021/01/04 02:05:38;;;;;;;19.45;7.68;;;3.40;84.90;;;;;;4957406;28;20030;-88
2021/01/04 02:08:10;;;;;;;19.08;8.00;;;3.40;84.70;;;;;;4931136;28;20071;-88
2021/01/04 02:10:39;;;;;;;22.02;8.38;;;3.30;84.70;;;;;;4957775;28;20023;-89
2021/01/04 02:13:11;;;;;;;20.23;9.48;;;3.30;84.60;;;;;;4958395;28;20023;-90
2021/01/04 02:15:49;;;;;;;22.02;8.63;;;3.40;84.70;;;;;;4958535;28;20383;-91
2021/01/04 02:18:43;;;;;;;20.88;9.05;;;3.40;84.70;;;;;;4956585;28;20030;-90
2021/01/04 02:21:27;;;;;;;19.15;8.82;;;3.40;84.80;;;;;;4957428;28;20026;-90
2021/01/04 02:24:07;;;;;;;19.13;8.57;;;3.40;84.80;;;;;;4955813;28;20121;-89
2021/01/04 02:26:35;;;;;;;28.30;11.52;;;3.40;84.90;;;;;;4957771;28;20077;-90
2021/01/04 02:29:05;;;;;;;22.40;9.75;;;3.40;84.60;;;;;;4947001;28;20006;-85
2021/01/04 02:31:33;;;;;;;26.45;10.43;;;3.40;84.40;;;;;;4972365;28;20085;-85
2021/01/04 02:34:00;;;;;;;26.40;10.60;;;3.30;84.40;;;;;;4965497;28;20018;-90
2021/01/04 02:36:30;;;;;;;33.85;11.82;;;3.30;84.50;;;;;;4959090;28;20098;-90
2021/01/04 02:39:07;;;;;;;25.25;10.23;;;3.40;84.70;;;;;;4958240;28;20022;-91
2021/01/04 02:41:42;;;;;;;26.45;10.90;;;3.40;85.00;;;;;;4958158;28;20033;-91
2021/01/04 02:44:08;;;;;;;25.58;9.93;;;3.40;85.00;;;;;;4958065;28;20495;-91
2021/01/04 02:46:38;;;;;;;26.38;8.95;;;3.50;84.90;;;;;;4941519;28;20123;-88
2021/01/04 02:49:47;;;;;;;24.70;9.45;;;3.50;85.10;;;;;;4974725;28;20385;-91
2021/01/04 02:52:18;;;;;;;22.27;9.35;;;3.50;85.10;;;;;;4944844;28;20035;-91
2021/01/04 02:54:53;;;;;;;27.63;10.23;;;3.60;85.00;;;;;;4957364;28;20019;-91
2021/01/04 02:57:27;;;;;;;20.27;8.85;;;3.60;85.00;;;;;;4975375;28;20419;-90
2021/01/04 02:59:58;;;;;;;22.92;9.98;;;3.60;84.90;;;;;;4955161;28;20073;-90
2021/01/04 03:02:46;;;;;;;21.92;8.90;;;3.60;84.80;;;;;;4974795;28;20054;-91
2021/01/04 03:05:16;;;;;;;22.58;9.05;;;3.60;84.90;;;;;;4956286;28;20125;-89
2021/01/04 03:07:49;;;;;;;19.92;8.73;;;3.60;84.90;;;;;;4959480;28;20507;-90
2021/01/04 03:10:26;;;;;;;21.33;9.05;;;3.60;84.90;;;;;;4958160;28;20041;-89
2021/01/04 03:13:02;;;;;;;20.90;8.80;;;3.60;85.00;;;;;;4974811;28;20026;-89
2021/01/04 03:15:44;;;;;;;23.80;9.25;;;3.60;84.70;;;;;;4971991;28;20463;-90
2021/01/04 03:18:44;;;;;;;25.38;9.63;;;3.60;84.60;;;;;;4970914;28;20038;-90
2021/01/04 03:21:12;;;;;;;21.55;8.82;;;3.50;84.60;;;;;;4974510;28;20015;-90
2021/01/04 03:23:38;;;;;;;20.65;9.13;;;3.50;84.80;;;;;;4956701;28;20380;-90
2021/01/04 03:26:17;;;;;;;23.67;9.20;;;3.50;84.60;;;;;;4957249;28;20077;-90
2021/01/04 03:28:42;;;;;;;25.35;10.15;;;3.50;84.50;;;;;;4953576;28;20027;-90
2021/01/04 03:31:09;;;;;;;20.45;9.07;;;3.50;84.60;;;;;;4956759;28;20097;-90
2021/01/04 03:33:34;;;;;;;28.27;11.52;;;3.50;84.70;;;;;;4940907;28;20038;-89
2021/01/04 03:36:00;;;;;;;23.00;10.93;;;3.50;84.50;;;;;;4940745;28;20035;-90
2021/01/04 03:38:25;;;;;;;25.23;9.98;;;3.50;84.50;;;;;;4940784;28;20403;-90
2021/01/04 03:40:51;;;;;;;26.13;11.00;;;3.50;84.80;;;;;;4945316;28;20037;-90
2021/01/04 03:43:17;;;;;;;23.33;9.57;;;3.40;84.60;;;;;;4937701;28;20050;-88
2021/01/04 03:45:43;;;;;;;24.63;9.55;;;3.40;84.60;;;;;;4940465;28;20388;-88
2021/01/04 03:48:09;;;;;;;26.88;10.20;;;3.40;84.60;;;;;;4973941;28;20031;-89
2021/01/04 03:50:35;;;;;;;26.02;10.07;;;3.40;84.60;;;;;;4938773;28;20082;-89
2021/01/04 03:53:00;;;;;;;28.30;10.57;;;3.40;84.50;;;;;;4957506;28;20035;-89
2021/01/04 03:55:26;;;;;;;27.52;11.07;;;3.40;84.80;;;;;;4952747;28;20024;-87
2021/01/04 03:57:51;;;;;;;23.65;9.32;;;3.50;84.90;;;;;;4946049;28;20060;-88
2021/01/04 04:00:18;;;;;;;28.05;9.95;;;3.50;85.00;;;;;;4956658;28;20117;-89
2021/01/04 04:02:45;;;;;;;22.45;8.98;;;3.50;84.90;;;;;;4958078;28;20027;-89
2021/01/04 04:05:13;;;;;;;25.77;9.57;;;3.50;84.90;;;;;;4956044;28;20023;-89
2021/01/04 04:07:40;;;;;;;23.10;9.85;;;3.50;84.80;;;;;;4953875;28;20432;-89
2021/01/04 04:10:06;;;;;;;21.50;9.52;;;3.50;84.60;;;;;;4957010;28;20416;-89
2021/01/04 04:12:32;;;;;;;22.83;10.02;;;3.50;84.70;;;;;;4956244;28;21551;-87
2021/01/04 04:14:57;;;;;;;22.92;10.38;;;3.50;84.70;;;;;;4956159;28;20031;-90
2021/01/04 04:17:24;;;;;;;29.88;10.73;;;3.50;84.50;;;;;;4956023;28;20082;-87
2021/01/04 04:19:50;;;;;;;29.27;10.85;;;3.50;84.80;;;;;;4955890;28;20471;-88
2021/01/04 04:22:16;;;;;;;29.55;10.57;;;3.50;84.60;;;;;;4956183;28;20070;-88
2021/01/04 04:24:44;;;;;;;25.58;11.40;;;3.50;84.90;;;;;;4956050;28;20050;-88
2021/01/04 04:27:10;;;;;;;24.08;10.05;;;3.40;84.40;;;;;;4956008;28;20019;-88
2021/01/04 04:29:41;;;;;;;24.38;10.82;;;3.50;84.60;;;;;;4955899;28;20051;-88
2021/01/04 04:32:07;;;;;;;25.35;10.40;;;3.40;84.90;;;;;;4956273;28;20387;-88
2021/01/04 04:34:34;;;;;;;26.67;10.55;;;3.50;84.90;;;;;;4955846;28;20483;-88
2021/01/04 04:37:00;;;;;;;24.75;9.48;;;3.50;84.70;;;;;;4955721;28;20031;-88
2021/01/04 04:39:26;;;;;;;24.95;11.18;;;3.50;84.80;;;;;;4943957;28;20026;-88
2021/01/04 04:41:54;;;;;;;26.52;9.40;;;3.50;84.70;;;;;;4976565;28;20027;-88
2021/01/04 04:44:37;;;;;;;27.08;10.57;;;3.40;84.40;;;;;;4959644;28;20049;-89
2021/01/04 04:47:20;;;;;;;23.15;9.95;;;3.40;84.50;;;;;;4957155;28;20025;-88
2021/01/04 04:50:04;;;;;;;26.15;9.85;;;3.40;84.90;;;;;;4955831;28;20055;-90
2021/01/04 04:52:32;;;;;;;21.75;9.18;;;3.40;84.60;;;;;;4959903;28;20030;-89
2021/01/04 04:55:13;;;;;;;31.85;9.75;;;3.40;84.90;;;;;;4959789;28;20023;-88
2021/01/04 04:57:58;;;;;;;30.27;11.25;;;3.40;84.90;;;;;;4976949;28;20440;-89
2021/01/04 05:00:45;;;;;;;27.15;10.60;;;3.40;84.80;;;;;;4977293;28;20046;-89
2021/01/04 05:03:43;;;;;;;31.13;11.48;;;3.40;84.50;;;;;;4957075;28;20463;-89
2021/01/04 05:06:39;;;;;;;34.10;11.52;;;3.40;84.50;;;;;;4957519;28;20026;-89
2021/01/04 05:09:11;;;;;;;30.60;11.23;;;3.30;84.50;;;;;;4958104;28;20492;-89
2021/01/04 05:11:40;;;;;;;27.23;11.20;;;3.30;84.70;;;;;;4958989;28;20019;-89
2021/01/04 05:14:17;;;;;;;27.42;10.93;;;3.30;84.70;;;;;;4959141;28;20125;-89
2021/01/04 05:17:10;;;;;;;28.35;11.25;;;3.30;84.70;;;;;;4959164;28;20030;-89
2021/01/04 05:19:54;;;;;;;27.10;10.68;;;3.30;85.50;;;;;;4986731;28;20030;-89
2021/01/04 05:22:37;;;;;;;29.80;11.05;;;3.30;84.90;;;;;;4964101;28;20158;-90
2021/01/04 05:25:35;;;;;;;28.15;10.48;;;3.30;84.80;;;;;;4959183;28;20485;-90
2021/01/04 05:28:09;;;;;;;32.15;12.85;;;3.30;84.60;;;;;;4960338;28;20027;-91
2021/01/04 05:30:56;;;;;;;29.05;11.70;;;3.20;84.50;;;;;;4959782;28;20039;-91
2021/01/04 05:33:49;;;;;;;33.67;11.85;;;3.20;84.60;;;;;;4959004;28;20030;-90
2021/01/04 05:36:27;;;;;;;33.13;11.95;;;3.20;85.20;;;;;;4956007;28;20034;-90
2021/01/04 05:39:25;;;;;;;27.58;11.25;;;3.20;84.90;;;;;;4960834;28;20378;-90
2021/01/04 05:42:06;;;;;;;37.17;13.15;;;3.20;85.00;;;;;;4952569;28;20449;-90
2021/01/04 05:44:57;;;;;;;32.95;12.00;;;3.20;85.00;;;;;;4959296;28;20035;-90
2021/01/04 05:47:32;;;;;;;30.92;12.13;;;3.30;85.10;;;;;;4976766;28;20023;-90
2021/01/04 05:50:16;;;;;;;34.30;12.20;;;3.30;84.90;;;;;;4959125;28;20090;-90
2021/01/04 05:52:42;;;;;;;34.67;13.00;;;3.30;85.00;;;;;;4958269;28;20067;-90
2021/01/04 05:55:11;;;;;;;36.30;13.82;;;3.30;84.80;;;;;;4940663;28;20502;-90
2021/01/04 05:57:49;;;;;;;36.55;13.05;;;3.30;84.80;;;;;;4959096;28;20031;-90
2021/01/04 06:00:37;;;;;;;32.25;11.52;;;3.30;84.90;;;;;;4959146;28;20050;-91
2021/01/04 06:03:15;;;;;;;29.45;12.02;;;3.30;84.60;;;;;;4938914;28;20415;-91
2021/01/04 06:05:41;;;;;;;32.08;12.43;;;3.20;84.80;;;;;;4948473;28;20526;-90
2021/01/04 06:08:23;;;;;;;30.95;12.35;;;3.20;84.70;;;;;;4958902;28;20042;-90
2021/01/04 06:10:53;;;;;;;35.28;11.32;;;3.20;84.60;;;;;;4975783;28;20095;-90
2021/01/04 06:13:19;;;;;;;29.77;11.15;;;3.20;84.90;;;;;;4958009;28;20034;-91
2021/01/04 06:15:46;;;;;;;34.17;11.48;;;3.30;85.80;;;;;;4941989;28;20023;-85
2021/01/04 06:18:26;;;;;;;33.78;12.43;;;3.30;85.10;;;;;;4957626;28;20093;-85
2021/01/04 06:21:24;;;;;;;31.55;12.13;;;3.30;85.00;;;;;;4972503;28;20031;-86
2021/01/04 06:23:52;;;;;;;27.52;12.00;;;3.30;85.10;;;;;;4957351;28;20034;-85
2021/01/04 06:26:20;;;;;;;35.00;11.98;;;3.30;85.00;;;;;;4957462;28;20118;-84
2021/01/04 06:28:54;;;;;;;29.70;12.02;;;3.40;85.20;;;;;;4974619;28;20019;-83
2021/01/04 06:31:34;;;;;;;29.08;11.43;;;3.40;85.20;;;;;;4974464;28;20058;-84
2021/01/04 06:34:14;;;;;;;33.35;13.18;;;3.40;84.90;;;;;;4971935;28;20098;-83
2021/01/04 06:36:40;;;;;;;31.35;12.30;;;3.40;85.00;;;;;;4957742;28;20050;-85
2021/01/04 06:39:17;;;;;;;30.88;11.63;;;3.40;85.10;;;;;;4957223;28;20026;-84
2021/01/04 06:41:42;;;;;;;32.72;13.82;;;3.50;85.20;;;;;;4957258;28;20019;-82
2021/01/04 06:44:21;;;;;;;31.60;12.25;;;3.50;85.40;;;;;;4957692;28;20031;-84
2021/01/04 06:47:08;;;;;;;28.65;11.25;;;3.50;85.30;;;;;;4957935;28;20538;-86
2021/01/04 06:49:54;;;;;;;31.88;12.25;;;3.60;85.10;;;;;;4953981;28;20062;-84
2021/01/04 06:52:50;;;;;;;30.63;12.38;;;3.50;85.00;;;;;;4957183;28;20530;-84
2021/01/04 06:56:01;;;;;;;32.97;12.25;;;3.50;85.00;;;;;;4954315;28;20030;-84
2021/01/04 06:58:47;;;;;;;30.75;11.57;;;3.50;84.90;;;;;;4956540;28;20066;-84
2021/01/04 07:01:16;;;;;;;32.47;12.32;;;3.50;84.90;;;;;;4956054;28;20034;-84
2021/01/04 07:04:02;;;;;;;34.00;12.98;;;3.50;85.00;;;;;;4974277;28;20039;-85
2021/01/04 07:06:59;;;;;;;27.67;10.50;;;3.50;84.90;;;;;;4956723;28;20015;-86
2021/01/04 07:09:36;;;;;;;28.52;10.45;;;3.50;84.80;;;;;;4956592;28;20472;-85
2021/01/04 07:12:09;;;;;;;26.63;11.25;;;3.40;84.40;;;;;;4955183;28;20068;-84
2021/01/04 07:14:43;;;;;;;29.85;11.13;;;3.40;84.70;;;;;;4956493;28;20035;-83
2021/01/04 07:17:20;;;;;;;29.60;10.95;;;3.40;84.90;;;;;;4974178;28;20034;-83
2021/01/04 07:20:13;;;;;;;27.33;11.27;;;3.40;85.00;;;;;;4956495;28;20062;-83
2021/01/04 07:23:06;;;;;;;32.40;10.57;;;3.40;84.90;;;;;;4956499;28;20023;-84
2021/01/04 07:25:56;;;;;;;31.48;11.63;;;3.40;84.90;;;;;;4969558;28;20023;-84
2021/01/04 07:29:04;;;;;;;26.48;10.07;;;3.40;84.90;;;;;;4980501;28;20054;-82
2021/01/04 07:31:41;;;;;;;24.42;10.05;;;3.40;84.90;;;;;;4972106;28;20070;-83
2021/01/04 07:34:13;;;;;;;25.52;10.40;;;3.40;84.90;;;;;;4952473;28;20062;-82
2021/01/04 07:36:51;;;;;;;33.35;11.60;;;3.40;84.90;;;;;;4956315;28;20027;-83
2021/01/04 07:39:35;;;;;;;25.83;10.35;;;3.40;85.10;;;;;;4973377;28;20027;-82
2021/01/04 07:42:22;;;;;;;27.00;11.85;;;3.40;85.00;;;;;;4956271;28;20014;-82
2021/01/04 07:45:09;;;;;;;30.27;10.25;;;3.40;84.90;;;;;;4953816;28;20121;-83
2021/01/04 07:47:46;;;;;;;26.60;11.02;;;3.40;85.00;;;;;;4973875;28;20105;-83
2021/01/04 07:50:49;;;;;;;26.83;11.07;;;3.50;85.00;;;;;;4969640;28;20374;-83
2021/01/04 07:53:40;;;;;;;26.45;10.95;;;3.40;84.70;;;;;;4953551;28;20037;-84
2021/01/04 07:56:24;;;;;;;25.52;9.77;;;3.40;85.00;;;;;;4953442;28;20078;-85
2021/01/04 07:59:08;;;;;;;27.90;11.45;;;3.40;85.00;;;;;;4970126;28;20353;-84
2021/01/04 08:01:37;;;;;;;27.08;9.95;;;3.50;85.00;;;;;;4969610;28;20479;-85
2021/01/04 08:04:44;;;;;;;22.48;9.98;;;3.50;85.10;;;;;;4956166;28;20117;-86
2021/01/04 08:07:21;;;;;;;28.23;10.48;;;3.50;84.80;;;;;;4952081;28;20023;-87
2021/01/04 08:10:07;;;;;;;28.63;11.10;;;3.50;84.90;;;;;;4957105;28;20035;-87
2021/01/04 08:12:57;;;;;;;27.05;11.07;;;3.50;85.10;;;;;;4972997;28;20014;-90
2021/01/04 08:15:48;;;;;;;25.83;10.25;;;3.50;85.20;;;;;;4958625;28;20034;-87
2021/01/04 08:18:18;;;;;;;25.17;10.30;;;3.50;85.00;;;;;;4959751;28;20101;-87
2021/01/04 08:21:22;;;;;;;28.38;9.95;;;3.50;84.90;;;;;;4960122;28;20538;-87
2021/01/04 08:24:03;;;;;;;23.65;9.52;;;3.60;85.20;;;;;;4974230;28;20049;-85
2021/01/04 08:26:48;;;;;;;27.45;10.50;;;3.60;85.30;;;;;;4959393;28;20596;-83
2021/01/04 08:29:18;;;;;;;;;;;3.60;85.10;;;;;;4959690;28;20078;-84
2021/01/04 08:32:21;;;;;;;28.38;11.85;;;3.60;85.00;;;;;;4976832;28;20371;-85
2021/01/04 08:34:48;;;;;;;22.92;9.25;;;3.60;84.60;;;;;;4972922;28;20027;-86
2021/01/04 08:37:19;;;;;;;27.42;11.00;;;3.60;84.90;;;;;;4959532;28;20031;-86
2021/01/04 08:39:51;;;;;;;24.95;9.35;;;3.60;84.90;;;;;;4959817;28;20082;-86
2021/01/04 08:42:20;;;;;;;24.38;9.13;;;3.60;85.10;;;;;;4959501;28;20118;-85
2021/01/04 08:44:58;;;;;;;26.23;10.00;;;3.60;84.80;;;;;;4957353;28;20026;-86
2021/01/04 08:47:48;;;;;;;24.55;9.88;;;3.60;84.60;;;;;;4960414;28;20106;-88
2021/01/04 08:50:23;;;;;;;22.30;8.63;;;3.60;85.00;;;;;;4964261;28;20015;-88
2021/01/04 08:52:51;;;;;;;20.75;9.00;;;3.60;85.20;;;;;;4962170;28;20051;-88
2021/01/04 08:55:32;;;;;;;21.88;8.73;;;3.60;85.00;;;;;;4961780;28;20035;-88
2021/01/04 08:58:33;;;;;;;18.40;8.18;;;3.60;85.00;;;;;;4960858;28;20019;-88
2021/01/04 09:01:01;;;;;;;23.08;8.88;;;3.70;85.20;;;;;;4961740;28;20030;-90
2021/01/04 09:03:30;;;;;;;21.27;8.50;;;3.70;84.80;;;;;;4960815;28;20031;-84
2021/01/04 09:05:56;;;;;;;20.45;7.70;;;3.80;85.10;;;;;;4959557;28;20022;-85
2021/01/04 09:08:30;;;;;;;22.85;9.02;;;3.70;84.90;;;;;;4978306;28;20035;-87
2021/01/04 09:11:02;;;;;;;19.92;7.90;;;3.70;84.50;;;;;;4964586;28;20019;-89
2021/01/04 09:13:35;;;;;;;17.95;7.32;;;3.60;84.30;;;;;;4959258;28;20082;-86
2021/01/04 09:16:11;;;;;;;23.05;8.40;;;3.60;84.70;;;;;;4959052;28;20383;-88
2021/01/04 09:18:49;;;;;;;18.00;7.72;;;3.70;85.00;;;;;;4958993;28;20018;-88
2021/01/04 09:21:41;;;;;;;18.98;7.45;;;3.70;84.90;;;;;;4958799;28;20030;-88
2021/01/04 09:24:21;;;;;;;16.90;7.10;;;3.60;84.40;;;;;;4966297;28;20102;-87
2021/01/04 09:26:48;;;;;;;18.27;6.47;;;3.60;84.80;;;;;;4975524;28;20110;-86
2021/01/04 09:29:20;;;;;;;18.38;8.40;;;3.60;84.70;;;;;;4942765;28;20057;-86
2021/01/04 09:31:59;;;;;;;18.60;8.27;;;3.60;85.10;;;;;;4975903;28;20023;-86
2021/01/04 09:34:29;;;;;;;18.80;7.03;;;3.70;85.20;;;;;;4971855;28;20086;-87
2021/01/04 09:37:01;;;;;;;14.30;7.20;;;3.80;85.30;;;;;;4976219;28;20023;-85
2021/01/04 09:39:30;;;;;;;18.73;7.82;;;3.80;85.10;;;;;;4958340;28;20030;-88
2021/01/04 09:41:58;;;;;;;17.42;7.38;;;3.80;85.00;;;;;;4958352;28;20023;-88
2021/01/04 09:44:24;;;;;;;17.15;7.30;;;3.80;84.80;;;;;;4956752;28;20364;-87
2021/01/04 09:46:59;;;;;;;15.95;6.53;;;3.80;84.80;;;;;;4958218;28;20157;-88
2021/01/04 09:49:33;;;;;;;17.17;5.93;;;3.80;84.60;;;;;;4955303;28;20158;-86
2021/01/04 09:52:02;;;;;;;17.88;7.68;;;3.80;84.60;;;;;;4978190;28;20098;-90
2021/01/04 09:54:42;;;;;;;16.70;6.65;;;3.70;84.40;;;;;;4958985;28;20383;-90
2021/01/04 09:57:08;;;;;;;19.02;7.93;;;3.70;84.90;;;;;;4971666;28;20031;-90
2021/01/04 09:59:40;;;;;;;16.40;7.20;;;3.80;85.80;;;;;;4956978;28;20498;-91
2021/01/04 10:02:08;;;;;;;17.65;7.55;;;3.80;85.10;;;;;;4975889;28;20067;-88
2021/01/04 10:04:41;;;;;;;15.65;6.88;;;3.80;84.80;;;;;;4970603;28;20383;-87
2021/01/04 10:07:09;;;;;;;16.13;7.28;;;3.80;84.50;;;;;;4955580;28;20031;-89
2021/01/04 10:09:45;;;;;;;15.25;6.45;;;3.80;84.80;;;;;;4974679;28;20022;-89
2021/01/04 10:12:14;;;;;;;17.05;7.10;;;3.70;85.00;;;;;;4954020;28;20023;-89
2021/01/04 10:14:40;;;;;;;19.48;7.32;;;3.80;85.30;;;;;;4956719;28;20029;-89
2021/01/04 10:17:06;;;;;;;15.93;7.18;;;3.90;84.90;;;;;;4928890;28;20046;-90
2021/01/04 10:19:38;;;;;;;16.67;7.05;;;3.80;85.40;;;;;;4941857;28;20033;-90
2021/01/04 10:22:07;;;;;;;16.88;7.07;;;3.90;85.00;;;;;;4975013;28;20041;-89
2021/01/04 10:24:45;;;;;;;15.98;6.65;;;3.90;85.30;;;;;;4957779;28;20035;-89
2021/01/04 10:27:15;;;;;;;15.57;6.90;;;4.00;85.20;;;;;;4977513;28;20023;-90
2021/01/04 10:29:43;;;;;;;15.68;6.97;;;4.00;85.00;;;;;;4962767;28;20094;-90
2021/01/04 10:32:24;;;;;;;15.93;6.38;;;4.00;85.30;;;;;;4958284;28;20034;-90
2021/01/04 10:34:52;;;;;;;14.85;6.45;;;4.00;84.90;;;;;;4970059;28;20445;-87
2021/01/04 10:37:20;;;;;;;14.63;7.22;;;4.00;84.80;;;;;;4958218;28;20019;-87
2021/01/04 10:39:47;;;;;;;13.07;6.55;;;4.00;84.90;;;;;;4957510;28;20023;-90
2021/01/04 10:42:22;;;;;;;16.15;6.95;;;4.00;84.80;;;;;;4958963;28;20018;-91
2021/01/04 10:44:51;;;;;;;14.68;6.40;;;4.00;84.70;;;;;;4958168;28;20399;-90
2021/01/04 10:47:26;;;;;;;15.13;6.18;;;4.00;84.60;;;;;;4957587;28;20030;-89
2021/01/04 10:50:03;;;;;;;16.23;7.50;;;3.90;84.90;;;;;;4957765;28;20125;-90
2021/01/04 10:52:29;;;;;;;14.07;5.97;;;4.00;84.80;;;;;;4960333;28;20015;-91
2021/01/04 10:54:54;;;;;;;14.90;6.05;;;4.00;85.10;;;;;;4943509;28;20372;-92
2021/01/04 10:57:42;;;;;;;15.32;7.25;;;4.00;85.00;;;;;;4941722;28;20034;-91
2021/01/04 11:00:32;;;;;;;15.48;6.35;;;4.00;84.20;;;;;;4956259;28;20024;-90
2021/01/04 11:03:12;;;;;;;14.32;5.43;;;4.00;84.20;;;;;;4972474;28;20038;-90
2021/01/04 11:05:40;;;;;;;14.93;6.80;;;3.90;84.00;;;;;;4957223;28;20034;-91
2021/01/04 11:08:24;;;;;;;15.48;6.72;;;3.80;84.10;;;;;;4957289;28;20107;-88
2021/01/04 11:11:11;;;;;;;14.85;6.57;;;3.80;84.60;;;;;;4952888;28;20078;-87
2021/01/04 11:13:37;;;;;;;14.25;6.30;;;3.80;84.50;;;;;;4968827;28;20478;-87
2021/01/04 11:16:15;;;;;;;13.63;5.65;;;3.80;84.50;;;;;;4938541;28;20025;-87
2021/01/04 11:19:01;;;;;;;15.95;6.72;;;3.80;84.60;;;;;;4956527;28;20034;-89
2021/01/04 11:21:53;;;;;;;18.85;7.75;;;3.80;84.80;;;;;;4953443;28;20386;-88
2021/01/04 11:24:19;;;;;;;14.05;6.15;;;3.90;84.50;;;;;;4951881;28;20050;-87
2021/01/04 11:26:46;;;;;;;15.20;6.93;;;3.80;84.10;;;;;;4941255;28;20521;-90
2021/01/04 11:29:12;;;;;;;15.77;7.00;;;3.80;84.10;;;;;;4954157;28;20058;-86
2021/01/04 11:31:37;;;;;;;17.00;6.75;;;3.70;84.50;;;;;;4956849;28;20019;-89
2021/01/04 11:34:04;;;;;;;15.90;6.55;;;3.80;84.60;;;;;;4954014;28;20463;-88
2021/01/04 11:36:30;;;;;;;13.95;5.82;;;3.80;84.30;;;;;;4956245;28;20022;-89
2021/01/04 11:38:56;;;;;;;12.73;5.55;;;3.70;84.20;;;;;;4956415;28;20579;-89
2021/01/04 11:41:22;;;;;;;13.63;6.10;;;3.80;84.90;;;;;;4940369;28;20035;-88
2021/01/04 11:43:48;;;;;;;14.95;5.80;;;3.80;84.90;;;;;;4940367;28;20399;-88
2021/01/04 11:46:18;;;;;;;12.55;5.35;;;3.80;84.80;;;;;;4956294;28;20031;-88
2021/01/04 11:48:44;;;;;;;12.38;5.60;;;3.90;84.90;;;;;;4952220;28;20023;-85
2021/01/04 11:51:20;;;;;;;14.48;5.72;;;4.00;85.00;;;;;;4955025;28;20019;-88
2021/01/04 11:53:50;;;;;;;12.88;4.90;;;4.00;84.80;;;;;;4956113;28;20027;-87
2021/01/04 11:56:16;;;;;;;13.43;5.07;;;4.00;84.80;;;;;;4952110;28;20517;-87
2021/01/04 11:58:43;;;;;;;15.50;6.22;;;4.00;84.30;;;;;;4955389;28;20471;-88
2021/01/04 12:01:08;;;;;;;14.23;5.68;;;4.00;84.80;;;;;;4956259;28;20031;-89
2021/01/04 12:03:34;;;;;;;15.27;6.35;;;4.00;84.70;;;;;;4940171;28;20059;-87
2021/01/04 12:05:59;;;;;;;15.43;5.75;;;4.00;84.80;;;;;;4956900;28;20027;-93
2021/01/04 12:08:25;;;;;;;12.60;4.95;;;4.00;84.50;;;;;;4956377;28;20395;-92
2021/01/04 12:10:51;;;;;;;11.80;5.22;;;4.00;84.70;;;;;;4974269;28;20054;-86
2021/01/04 12:13:16;;;;;;;13.00;5.30;;;4.10;84.80;;;;;;4973398;28;20062;-87
2021/01/04 12:15:42;;;;;;;17.08;6.75;;;4.10;84.30;;;;;;4939615;28;20031;-85
2021/01/04 12:18:07;;;;;;;14.73;6.30;;;4.00;84.20;;;;;;4939723;28;20023;-88
2021/01/04 12:20:33;;;;;;;16.23;7.15;;;4.00;84.30;;;;;;4955263;28;20495;-88
2021/01/04 12:22:59;;;;;;;16.70;6.85;;;4.00;84.20;;;;;;4962207;28;20039;-88
2021/01/04 12:25:24;;;;;;;16.13;6.85;;;4.00;84.30;;;;;;4941686;28;20039;-89
2021/01/04 12:27:50;;;;;;;16.13;7.03;;;4.00;84.70;;;;;;4955858;28;20126;-89
2021/01/04 12:30:17;;;;;;;14.45;5.63;;;4.10;84.40;;;;;;4939919;28;20063;-88
2021/01/04 12:32:42;;;;;;;12.93;6.40;;;4.00;84.40;;;;;;4956167;28;20082;-89
2021/01/04 12:35:09;;;;;;;16.05;7.13;;;4.10;84.80;;;;;;4940719;28;20030;-89
2021/01/04 12:37:36;;;;;;;15.93;6.53;;;4.20;84.50;;;;;;4936948;28;20031;-88
2021/01/04 12:40:03;;;;;;;20.92;7.47;;;4.20;84.80;;;;;;4939985;28;20035;-88
2021/01/04 12:42:28;;;;;;;14.65;6.22;;;4.20;84.90;;;;;;4939835;28;20471;-87
2021/01/04 12:44:54;;;;;;;17.45;7.72;;;4.30;84.40;;;;;;4955762;28;20043;-89
2021/01/04 12:47:19;;;;;;;14.65;6.60;;;4.30;84.40;;;;;;4939833;28;20110;-88
2021/01/04 12:49:45;;;;;;;17.90;7.97;;;4.30;84.50;;;;;;4955545;28;20035;-89
2021/01/04 12:52:11;;;;;;;15.75;7.05;;;4.30;84.40;;;;;;4939920;28;20308;-88
2021/01/04 12:54:36;;;;;;;16.25;6.63;;;4.30;84.50;;;;;;4944136;28;20364;-89
2021/01/04 12:57:03;;;;;;;15.18;6.75;;;4.20;84.30;;;;;;4937046;28;20055;-88
2021/01/04 12:59:36;;;;;;;14.30;6.28;;;4.30;84.60;;;;;;4956661;28;20027;-93
2021/01/04 13:02:02;;;;;;;16.25;6.53;;;4.30;84.80;;;;;;4959766;28;20034;-91
2021/01/04 13:04:28;;;;;;;15.70;7.15;;;4.40;84.80;;;;;;4967372;28;20058;-93
2021/01/04 13:06:56;;;;;;;14.35;6.47;;;4.40;84.60;;;;;;4937229;28;20066;-94
2021/01/04 13:09:21;;;;;;;15.15;6.57;;;4.40;84.40;;;;;;4961905;28;20027;-94
2021/01/04 13:11:49;;;;;;;15.75;7.65;;;4.40;84.40;;;;;;4961547;28;20494;-92
2021/01/04 13:14:16;;;;;;;17.05;6.93;;;4.40;84.30;;;;;;4945090;28;20035;-93
2021/01/04 13:16:42;;;;;;;16.45;6.82;;;4.30;84.30;;;;;;4960515;28;20034;-92
2021/01/04 13:19:10;;;;;;;18.35;8.65;;;4.30;84.20;;;;;;4959847;28;20023;-91
2021/01/04 13:21:36;;;;;;;20.83;9.52;;;4.30;84.30;;;;;;4959646;28;20022;-91
2021/01/04 13:24:04;;;;;;;15.00;6.72;;;4.20;83.80;;;;;;4956737;28;20372;-91
2021/01/04 13:26:29;;;;;;;14.52;6.70;;;4.20;83.90;;;;;;4959720;28;20023;-91
2021/01/04 13:28:55;;;;;;;15.65;7.15;;;4.20;84.30;;;;;;4958988;28;20053;-91